Pecos, Texas
Current Conditions -  °F | °C
As of 8:35 AM on Monday 26 Jan 2015 (Local Time) from KPEQ Reporting Station
Clear Clear  
Wind Chill: 33°   Ceiling: Unl
Heat Index: 33°   Visibility: 10mi
Dew Point: 31°   Wind: 3mph
Humidity: 92%   Direction: 260°W
Pressure: 30.32"   Gusts: NA
Location:  31.43°N, 103.49°W
Report Text: KPEQ 261435Z AUTO 26003KT 10SM CLR 01/M01 A3032 RMK AO2 T00051007
Loading
Personal Weather Stations






























Interactive Weather Map New forecast layout! Learn more

10-Day Weather Forecast

Advertisements
Track Severe Weather on mobile